Terminal Aerodrome Forecast
Issued by NWS Charleston, WV

Current Version | Previous Version | Text Only | Print | Product List | Glossary Off
Versions: 1 2 3 4 5 6 7 8 9 10 11 12 13 14 15 16 17 18 19 20 21 22 23 24 25 26 27 28 29 30

816
FTUS41 KRLX 200524
TAFPKB
TAF
KPKB 200524Z 2006/2106 22005KT P6SM BKN012
     FM200900 23004KT 6SM BR OVC008
     FM201300 23004KT P6SM OVC012
     FM201600 24004KT P6SM BKN025
     FM201700 29006KT P6SM BKN035 PROB30 2020/2022 3SM TSRA BKN050CB
     FM202300 36003KT P6SM BKN050=

USA.gov is the U.S. government's official web portal to all federal, state and local government web resources and services.